sensor_id;sensor_type;location;lat;lon;timestamp;temperature;humidity
13223;DHT22;6676;45.192;5.722;2022-07-23T00:01:57;29.00;69.50
13223;DHT22;6676;45.192;5.722;2022-07-23T00:04:48;29.10;69.40
13223;DHT22;6676;45.192;5.722;2022-07-23T00:07:39;29.00;69.80
13223;DHT22;6676;45.192;5.722;2022-07-23T00:10:30;28.80;70.00
13223;DHT22;6676;45.192;5.722;2022-07-23T00:13:21;28.80;70.50
13223;DHT22;6676;45.192;5.722;2022-07-23T00:16:13;28.70;70.70
13223;DHT22;6676;45.192;5.722;2022-07-23T00:19:04;28.60;70.90
13223;DHT22;6676;45.192;5.722;2022-07-23T00:21:55;28.60;71.20
13223;DHT22;6676;45.192;5.722;2022-07-23T00:24:46;28.50;71.30
13223;DHT22;6676;45.192;5.722;2022-07-23T00:27:38;28.50;71.30
13223;DHT22;6676;45.192;5.722;2022-07-23T00:30:30;28.40;71.60
13223;DHT22;6676;45.192;5.722;2022-07-23T00:33:22;28.40;71.90
13223;DHT22;6676;45.192;5.722;2022-07-23T00:36:13;28.30;72.60
13223;DHT22;6676;45.192;5.722;2022-07-23T00:39:05;28.20;73.00
13223;DHT22;6676;45.192;5.722;2022-07-23T00:41:56;28.30;73.00
13223;DHT22;6676;45.192;5.722;2022-07-23T00:44:47;28.40;73.30
13223;DHT22;6676;45.192;5.722;2022-07-23T00:47:42;28.40;73.90
13223;DHT22;6676;45.192;5.722;2022-07-23T00:50:34;28.40;74.00
13223;DHT22;6676;45.192;5.722;2022-07-23T00:53:25;28.50;73.70
13223;DHT22;6676;45.192;5.722;2022-07-23T00:56:16;28.60;74.60
13223;DHT22;6676;45.192;5.722;2022-07-23T00:59:08;28.60;74.90
13223;DHT22;6676;45.192;5.722;2022-07-23T01:01:59;28.50;75.70
13223;DHT22;6676;45.192;5.722;2022-07-23T01:04:51;28.40;77.20
13223;DHT22;6676;45.192;5.722;2022-07-23T01:07:43;28.30;78.10
13223;DHT22;6676;45.192;5.722;2022-07-23T01:10:35;28.30;78.60
13223;DHT22;6676;45.192;5.722;2022-07-23T01:13:27;28.20;79.40
13223;DHT22;6676;45.192;5.722;2022-07-23T01:16:19;28.10;80.80
13223;DHT22;6676;45.192;5.722;2022-07-23T01:19:11;28.10;81.70
13223;DHT22;6676;45.192;5.722;2022-07-23T01:22:04;28.10;81.80
13223;DHT22;6676;45.192;5.722;2022-07-23T01:24:57;28.10;82.20
13223;DHT22;6676;45.192;5.722;2022-07-23T01:27:51;28.10;82.60
13223;DHT22;6676;45.192;5.722;2022-07-23T01:30:46;28.10;82.50
13223;DHT22;6676;45.192;5.722;2022-07-23T01:33:40;28.20;82.30
13223;DHT22;6676;45.192;5.722;2022-07-23T01:36:36;28.30;82.80
13223;DHT22;6676;45.192;5.722;2022-07-23T01:39:35;28.30;82.00
13223;DHT22;6676;45.192;5.722;2022-07-23T01:42:29;28.30;81.10
13223;DHT22;6676;45.192;5.722;2022-07-23T01:45:26;28.40;82.20
13223;DHT22;6676;45.192;5.722;2022-07-23T01:48:22;28.40;82.50
13223;DHT22;6676;45.192;5.722;2022-07-23T01:51:25;28.30;83.40
13223;DHT22;6676;45.192;5.722;2022-07-23T01:54:33;28.30;84.20
13223;DHT22;6676;45.192;5.722;2022-07-23T01:57:28;28.20;85.00
13223;DHT22;6676;45.192;5.722;2022-07-23T02:00:23;28.10;85.50
13223;DHT22;6676;45.192;5.722;2022-07-23T02:03:17;28.00;85.80
13223;DHT22;6676;45.192;5.722;2022-07-23T02:06:13;28.00;86.10
13223;DHT22;6676;45.192;5.722;2022-07-23T02:09:06;28.00;86.20
13223;DHT22;6676;45.192;5.722;2022-07-23T02:11:59;28.00;85.30
13223;DHT22;6676;45.192;5.722;2022-07-23T02:14:54;28.00;85.50
13223;DHT22;6676;45.192;5.722;2022-07-23T02:17:50;28.00;86.20
13223;DHT22;6676;45.192;5.722;2022-07-23T02:20:43;28.00;86.70
13223;DHT22;6676;45.192;5.722;2022-07-23T02:23:37;28.00;87.80
13223;DHT22;6676;45.192;5.722;2022-07-23T02:26:33;27.90;88.40
13223;DHT22;6676;45.192;5.722;2022-07-23T02:29:27;27.80;89.30
13223;DHT22;6676;45.192;5.722;2022-07-23T02:32:30;27.80;90.10
13223;DHT22;6676;45.192;5.722;2022-07-23T02:35:25;27.70;91.70
13223;DHT22;6676;45.192;5.722;2022-07-23T02:38:21;27.50;92.70
13223;DHT22;6676;45.192;5.722;2022-07-23T02:41:15;27.40;94.20
13223;DHT22;6676;45.192;5.722;2022-07-23T02:44:09;27.20;95.50
13223;DHT22;6676;45.192;5.722;2022-07-23T02:47:04;27.20;96.90
13223;DHT22;6676;45.192;5.722;2022-07-23T02:49:58;27.10;98.70
13223;DHT22;6676;45.192;5.722;2022-07-23T02:52:53;27.00;99.90
13223;DHT22;6676;45.192;5.722;2022-07-23T02:55:47;27.10;99.90
13223;DHT22;6676;45.192;5.722;2022-07-23T02:58:42;27.30;99.90
13223;DHT22;6676;45.192;5.722;2022-07-23T03:01:36;27.30;99.90
13223;DHT22;6676;45.192;5.722;2022-07-23T03:04:31;27.30;99.90
13223;DHT22;6676;45.192;5.722;2022-07-23T03:07:23;27.50;99.90
13223;DHT22;6676;45.192;5.722;2022-07-23T03:10:14;27.70;98.90
13223;DHT22;6676;45.192;5.722;2022-07-23T03:13:05;27.90;97.70
13223;DHT22;6676;45.192;5.722;2022-07-23T03:15:56;28.00;97.50
13223;DHT22;6676;45.192;5.722;2022-07-23T03:18:48;28.00;97.70
13223;DHT22;6676;45.192;5.722;2022-07-23T03:21:39;28.00;97.60
13223;DHT22;6676;45.192;5.722;2022-07-23T03:24:30;28.00;96.70
13223;DHT22;6676;45.192;5.722;2022-07-23T03:27:41;28.20;96.10
13223;DHT22;6676;45.192;5.722;2022-07-23T03:30:33;28.20;96.40
13223;DHT22;6676;45.192;5.722;2022-07-23T03:33:24;28.20;96.20
13223;DHT22;6676;45.192;5.722;2022-07-23T03:36:15;28.20;95.90
13223;DHT22;6676;45.192;5.722;2022-07-23T03:39:07;28.30;95.80
13223;DHT22;6676;45.192;5.722;2022-07-23T03:42:00;28.10;97.50
13223;DHT22;6676;45.192;5.722;2022-07-23T03:44:51;27.80;99.50
13223;DHT22;6676;45.192;5.722;2022-07-23T03:47:42;27.40;99.90
13223;DHT22;6676;45.192;5.722;2022-07-23T03:50:35;27.30;99.90
13223;DHT22;6676;45.192;5.722;2022-07-23T03:53:27;27.20;99.90
13223;DHT22;6676;45.192;5.722;2022-07-23T03:56:18;27.10;99.90
13223;DHT22;6676;45.192;5.722;2022-07-23T03:59:09;27.10;99.90
13223;DHT22;6676;45.192;5.722;2022-07-23T04:02:01;27.10;99.90
13223;DHT22;6676;45.192;5.722;2022-07-23T04:04:53;27.10;99.90
13223;DHT22;6676;45.192;5.722;2022-07-23T04:07:44;27.20;99.90
13223;DHT22;6676;45.192;5.722;2022-07-23T04:10:35;27.30;99.90
13223;DHT22;6676;45.192;5.722;2022-07-23T04:13:27;27.40;99.90
13223;DHT22;6676;45.192;5.722;2022-07-23T04:16:18;27.50;99.90
13223;DHT22;6676;45.192;5.722;2022-07-23T04:19:11;27.50;99.90
13223;DHT22;6676;45.192;5.722;2022-07-23T04:22:04;27.50;99.90
13223;DHT22;6676;45.192;5.722;2022-07-23T04:24:55;27.50;99.90
13223;DHT22;6676;45.192;5.722;2022-07-23T04:27:46;27.40;99.90
13223;DHT22;6676;45.192;5.722;2022-07-23T04:30:37;27.40;99.90
13223;DHT22;6676;45.192;5.722;2022-07-23T04:33:30;27.50;99.90
13223;DHT22;6676;45.192;5.722;2022-07-23T04:36:23;27.10;99.90
13223;DHT22;6676;45.192;5.722;2022-07-23T04:39:14;26.80;99.90
13223;DHT22;6676;45.192;5.722;2022-07-23T04:42:06;26.80;99.90
13223;DHT22;6676;45.192;5.722;2022-07-23T04:44:57;26.60;99.90
13223;DHT22;6676;45.192;5.722;2022-07-23T04:47:48;26.70;99.90
13223;DHT22;6676;45.192;5.722;2022-07-23T04:50:40;26.50;99.90
13223;DHT22;6676;45.192;5.722;2022-07-23T04:53:43;26.40;99.90
13223;DHT22;6676;45.192;5.722;2022-07-23T04:56:34;26.30;99.90
13223;DHT22;6676;45.192;5.722;2022-07-23T04:59:27;26.20;99.90
13223;DHT22;6676;45.192;5.722;2022-07-23T05:02:20;25.90;99.90
13223;DHT22;6676;45.192;5.722;2022-07-23T05:05:11;25.90;99.90
13223;DHT22;6676;45.192;5.722;2022-07-23T05:08:05;25.90;99.90
13223;DHT22;6676;45.192;5.722;2022-07-23T05:10:57;25.90;99.90
13223;DHT22;6676;45.192;5.722;2022-07-23T05:13:49;25.90;99.90
13223;DHT22;6676;45.192;5.722;2022-07-23T05:16:41;25.90;99.90
13223;DHT22;6676;45.192;5.722;2022-07-23T05:19:34;25.80;99.90
13223;DHT22;6676;45.192;5.722;2022-07-23T05:22:26;25.90;99.90
13223;DHT22;6676;45.192;5.722;2022-07-23T05:25:18;25.80;99.90
13223;DHT22;6676;45.192;5.722;2022-07-23T05:28:09;25.70;99.90
13223;DHT22;6676;45.192;5.722;2022-07-23T05:31:00;25.60;99.90
13223;DHT22;6676;45.192;5.722;2022-07-23T05:33:54;25.40;99.90
13223;DHT22;6676;45.192;5.722;2022-07-23T05:36:45;25.20;99.90
13223;DHT22;6676;45.192;5.722;2022-07-23T05:39:38;25.10;99.90
13223;DHT22;6676;45.192;5.722;2022-07-23T05:42:30;25.00;99.90
13223;DHT22;6676;45.192;5.722;2022-07-23T05:45:21;24.90;99.90
13223;DHT22;6676;45.192;5.722;2022-07-23T05:48:13;24.90;99.90
13223;DHT22;6676;45.192;5.722;2022-07-23T05:51:07;25.00;99.90
13223;DHT22;6676;45.192;5.722;2022-07-23T05:53:59;24.80;99.90
13223;DHT22;6676;45.192;5.722;2022-07-23T05:56:51;24.60;99.90
13223;DHT22;6676;45.192;5.722;2022-07-23T05:59:43;24.50;99.90
13223;DHT22;6676;45.192;5.722;2022-07-23T06:02:35;24.30;99.90
13223;DHT22;6676;45.192;5.722;2022-07-23T06:05:26;24.20;99.90
13223;DHT22;6676;45.192;5.722;2022-07-23T06:08:18;24.10;99.90
13223;DHT22;6676;45.192;5.722;2022-07-23T06:11:10;24.00;99.90
13223;DHT22;6676;45.192;5.722;2022-07-23T06:14:02;24.00;99.90
13223;DHT22;6676;45.192;5.722;2022-07-23T06:16:55;24.10;99.90
13223;DHT22;6676;45.192;5.722;2022-07-23T06:19:46;24.00;99.90
13223;DHT22;6676;45.192;5.722;2022-07-23T06:25:20;23.70;99.90
13223;DHT22;6676;45.192;5.722;2022-07-23T06:28:11;23.50;99.90
13223;DHT22;6676;45.192;5.722;2022-07-23T06:31:03;23.40;99.90
13223;DHT22;6676;45.192;5.722;2022-07-23T06:33:54;23.20;99.90
13223;DHT22;6676;45.192;5.722;2022-07-23T06:36:46;23.10;99.90
13223;DHT22;6676;45.192;5.722;2022-07-23T06:39:36;23.00;99.90
13223;DHT22;6676;45.192;5.722;2022-07-23T06:42:28;23.00;99.90
13223;DHT22;6676;45.192;5.722;2022-07-23T06:45:20;23.00;99.90
13223;DHT22;6676;45.192;5.722;2022-07-23T06:48:12;23.10;99.90
13223;DHT22;6676;45.192;5.722;2022-07-23T06:51:03;23.20;99.90
13223;DHT22;6676;45.192;5.722;2022-07-23T06:53:55;23.30;99.90
13223;DHT22;6676;45.192;5.722;2022-07-23T06:56:47;23.40;99.90
13223;DHT22;6676;45.192;5.722;2022-07-23T06:59:39;23.50;99.90
13223;DHT22;6676;45.192;5.722;2022-07-23T07:02:31;23.70;99.90
13223;DHT22;6676;45.192;5.722;2022-07-23T07:05:22;23.90;99.90
13223;DHT22;6676;45.192;5.722;2022-07-23T07:08:15;23.90;99.90
13223;DHT22;6676;45.192;5.722;2022-07-23T07:11:07;24.00;99.90
13223;DHT22;6676;45.192;5.722;2022-07-23T07:13:58;24.10;99.90
13223;DHT22;6676;45.192;5.722;2022-07-23T07:16:49;24.20;99.90
13223;DHT22;6676;45.192;5.722;2022-07-23T07:19:40;24.30;99.90
13223;DHT22;6676;45.192;5.722;2022-07-23T07:22:31;24.40;99.90
13223;DHT22;6676;45.192;5.722;2022-07-23T07:25:22;24.50;99.90
13223;DHT22;6676;45.192;5.722;2022-07-23T07:28:14;24.70;99.90
13223;DHT22;6676;45.192;5.722;2022-07-23T07:31:05;24.80;99.90
13223;DHT22;6676;45.192;5.722;2022-07-23T07:33:58;24.80;99.90
13223;DHT22;6676;45.192;5.722;2022-07-23T07:36:49;24.80;99.90
13223;DHT22;6676;45.192;5.722;2022-07-23T07:39:41;24.90;99.90
13223;DHT22;6676;45.192;5.722;2022-07-23T07:42:32;24.80;99.90
13223;DHT22;6676;45.192;5.722;2022-07-23T07:45:25;25.10;99.90
13223;DHT22;6676;45.192;5.722;2022-07-23T07:48:17;25.20;99.90
13223;DHT22;6676;45.192;5.722;2022-07-23T07:51:08;25.20;99.90
13223;DHT22;6676;45.192;5.722;2022-07-23T07:54:00;25.30;99.90
13223;DHT22;6676;45.192;5.722;2022-07-23T07:56:53;25.20;99.90
13223;DHT22;6676;45.192;5.722;2022-07-23T07:59:44;25.20;99.90
13223;DHT22;6676;45.192;5.722;2022-07-23T08:02:42;25.20;99.90
13223;DHT22;6676;45.192;5.722;2022-07-23T08:05:33;25.10;99.90
13223;DHT22;6676;45.192;5.722;2022-07-23T08:08:25;25.20;99.90
13223;DHT22;6676;45.192;5.722;2022-07-23T08:11:17;25.30;99.90
13223;DHT22;6676;45.192;5.722;2022-07-23T08:14:08;25.40;99.90
13223;DHT22;6676;45.192;5.722;2022-07-23T08:17:00;25.50;99.90
13223;DHT22;6676;45.192;5.722;2022-07-23T08:19:53;25.50;99.90
13223;DHT22;6676;45.192;5.722;2022-07-23T08:22:46;25.50;99.90
13223;DHT22;6676;45.192;5.722;2022-07-23T08:25:39;25.60;99.90
13223;DHT22;6676;45.192;5.722;2022-07-23T08:28:33;25.70;99.90
13223;DHT22;6676;45.192;5.722;2022-07-23T08:31:26;25.90;99.90
13223;DHT22;6676;45.192;5.722;2022-07-23T08:40:13;26.20;99.90
13223;DHT22;6676;45.192;5.722;2022-07-23T08:43:06;26.20;99.90
13223;DHT22;6676;45.192;5.722;2022-07-23T08:46:00;26.20;99.90
13223;DHT22;6676;45.192;5.722;2022-07-23T08:48:52;26.30;99.90
13223;DHT22;6676;45.192;5.722;2022-07-23T08:51:45;26.40;99.90
13223;DHT22;6676;45.192;5.722;2022-07-23T08:54:38;26.50;99.90
13223;DHT22;6676;45.192;5.722;2022-07-23T08:57:29;26.40;99.90
13223;DHT22;6676;45.192;5.722;2022-07-23T09:00:22;26.40;99.90
13223;DHT22;6676;45.192;5.722;2022-07-23T09:03:18;26.40;99.90
13223;DHT22;6676;45.192;5.722;2022-07-23T09:06:09;26.40;99.90
13223;DHT22;6676;45.192;5.722;2022-07-23T09:09:11;26.30;99.90
13223;DHT22;6676;45.192;5.722;2022-07-23T09:12:04;26.40;99.90
13223;DHT22;6676;45.192;5.722;2022-07-23T09:14:56;26.40;99.90
13223;DHT22;6676;45.192;5.722;2022-07-23T09:17:49;26.50;99.90
13223;DHT22;6676;45.192;5.722;2022-07-23T09:20:41;26.70;99.90
13223;DHT22;6676;45.192;5.722;2022-07-23T09:23:39;26.70;99.90
13223;DHT22;6676;45.192;5.722;2022-07-23T09:26:34;26.80;99.90
13223;DHT22;6676;45.192;5.722;2022-07-23T09:29:27;26.70;99.90
13223;DHT22;6676;45.192;5.722;2022-07-23T09:32:18;26.70;99.90
13223;DHT22;6676;45.192;5.722;2022-07-23T09:35:10;27.00;99.90
13223;DHT22;6676;45.192;5.722;2022-07-23T09:38:04;27.00;99.90
13223;DHT22;6676;45.192;5.722;2022-07-23T09:41:09;27.20;99.90
13223;DHT22;6676;45.192;5.722;2022-07-23T09:44:08;27.20;99.90
13223;DHT22;6676;45.192;5.722;2022-07-23T09:47:00;27.30;99.90
13223;DHT22;6676;45.192;5.722;2022-07-23T09:50:03;27.50;99.90
13223;DHT22;6676;45.192;5.722;2022-07-23T09:52:56;27.50;99.90
13223;DHT22;6676;45.192;5.722;2022-07-23T09:55:47;27.60;99.90
13223;DHT22;6676;45.192;5.722;2022-07-23T09:58:42;27.70;99.90
13223;DHT22;6676;45.192;5.722;2022-07-23T10:01:39;27.70;99.90
13223;DHT22;6676;45.192;5.722;2022-07-23T10:04:31;27.70;99.90
13223;DHT22;6676;45.192;5.722;2022-07-23T10:07:40;27.80;99.90
13223;DHT22;6676;45.192;5.722;2022-07-23T10:10:52;27.90;99.90
13223;DHT22;6676;45.192;5.722;2022-07-23T10:16:43;28.40;99.90
13223;DHT22;6676;45.192;5.722;2022-07-23T10:19:39;28.40;99.90
13223;DHT22;6676;45.192;5.722;2022-07-23T10:22:33;28.40;99.90
13223;DHT22;6676;45.192;5.722;2022-07-23T10:35:03;28.30;99.90
13223;DHT22;6676;45.192;5.722;2022-07-23T10:37:56;28.00;99.90
13223;DHT22;6676;45.192;5.722;2022-07-23T10:40:56;28.00;99.90
13223;DHT22;6676;45.192;5.722;2022-07-23T10:44:05;28.10;99.90
13223;DHT22;6676;45.192;5.722;2022-07-23T10:46:58;28.10;99.90
13223;DHT22;6676;45.192;5.722;2022-07-23T10:50:23;28.10;99.90
13223;DHT22;6676;45.192;5.722;2022-07-23T10:55:57;28.30;99.90
13223;DHT22;6676;45.192;5.722;2022-07-23T10:58:50;28.40;99.90
13223;DHT22;6676;45.192;5.722;2022-07-23T11:01:43;28.40;99.90
13223;DHT22;6676;45.192;5.722;2022-07-23T11:04:51;28.50;99.90
13223;DHT22;6676;45.192;5.722;2022-07-23T11:11:11;28.60;99.90
13223;DHT22;6676;45.192;5.722;2022-07-23T11:14:02;28.50;99.90
13223;DHT22;6676;45.192;5.722;2022-07-23T11:16:56;28.50;99.90
13223;DHT22;6676;45.192;5.722;2022-07-23T11:23:19;29.00;99.90
13223;DHT22;6676;45.192;5.722;2022-07-23T11:26:22;29.10;99.90
13223;DHT22;6676;45.192;5.722;2022-07-23T11:29:45;29.20;99.90
13223;DHT22;6676;45.192;5.722;2022-07-23T11:32:40;29.20;99.90
13223;DHT22;6676;45.192;5.722;2022-07-23T11:35:35;29.30;99.90
13223;DHT22;6676;45.192;5.722;2022-07-23T11:38:31;29.20;99.90
13223;DHT22;6676;45.192;5.722;2022-07-23T11:41:23;29.10;99.90
13223;DHT22;6676;45.192;5.722;2022-07-23T11:44:26;29.30;99.90
13223;DHT22;6676;45.192;5.722;2022-07-23T11:47:21;29.40;99.90
13223;DHT22;6676;45.192;5.722;2022-07-23T11:50:13;29.50;99.90
13223;DHT22;6676;45.192;5.722;2022-07-23T11:53:05;29.40;99.90
13223;DHT22;6676;45.192;5.722;2022-07-23T11:56:09;29.50;99.90
13223;DHT22;6676;45.192;5.722;2022-07-23T11:59:00;29.40;99.90
13223;DHT22;6676;45.192;5.722;2022-07-23T12:02:00;29.40;99.90
13223;DHT22;6676;45.192;5.722;2022-07-23T12:04:53;29.60;99.90
13223;DHT22;6676;45.192;5.722;2022-07-23T12:07:45;29.80;99.90
13223;DHT22;6676;45.192;5.722;2022-07-23T12:10:39;29.70;99.90
13223;DHT22;6676;45.192;5.722;2022-07-23T12:13:32;29.60;99.90
13223;DHT22;6676;45.192;5.722;2022-07-23T12:16:23;29.60;99.90
13223;DHT22;6676;45.192;5.722;2022-07-23T12:21:55;29.60;99.90
13223;DHT22;6676;45.192;5.722;2022-07-23T12:24:58;29.60;99.90
13223;DHT22;6676;45.192;5.722;2022-07-23T12:27:58;29.80;99.90
13223;DHT22;6676;45.192;5.722;2022-07-23T12:30:51;29.80;99.90
13223;DHT22;6676;45.192;5.722;2022-07-23T12:33:43;29.90;99.90
13223;DHT22;6676;45.192;5.722;2022-07-23T12:42:13;30.20;99.90
13223;DHT22;6676;45.192;5.722;2022-07-23T12:45:09;30.40;99.90
13223;DHT22;6676;45.192;5.722;2022-07-23T12:48:05;30.30;99.90
13223;DHT22;6676;45.192;5.722;2022-07-23T12:53:52;30.40;99.90
13223;DHT22;6676;45.192;5.722;2022-07-23T12:56:46;30.50;99.90
13223;DHT22;6676;45.192;5.722;2022-07-23T12:59:37;30.70;99.90
13223;DHT22;6676;45.192;5.722;2022-07-23T13:05:28;31.00;99.90
13223;DHT22;6676;45.192;5.722;2022-07-23T13:08:20;31.00;99.90
13223;DHT22;6676;45.192;5.722;2022-07-23T13:11:12;31.10;99.90
13223;DHT22;6676;45.192;5.722;2022-07-23T13:14:04;30.90;99.90
13223;DHT22;6676;45.192;5.722;2022-07-23T13:16:57;30.80;99.90
13223;DHT22;6676;45.192;5.722;2022-07-23T13:22:28;30.80;99.90
13223;DHT22;6676;45.192;5.722;2022-07-23T13:28:04;30.70;99.90
13223;DHT22;6676;45.192;5.722;2022-07-23T13:30:58;30.70;99.90
13223;DHT22;6676;45.192;5.722;2022-07-23T13:33:51;30.60;99.90
13223;DHT22;6676;45.192;5.722;2022-07-23T13:36:48;30.50;99.90
13223;DHT22;6676;45.192;5.722;2022-07-23T13:42:39;30.20;99.90
13223;DHT22;6676;45.192;5.722;2022-07-23T13:45:30;30.30;99.90
13223;DHT22;6676;45.192;5.722;2022-07-23T13:48:22;30.30;99.90
13223;DHT22;6676;45.192;5.722;2022-07-23T13:51:15;30.40;99.90
13223;DHT22;6676;45.192;5.722;2022-07-23T13:54:12;30.40;99.90
13223;DHT22;6676;45.192;5.722;2022-07-23T13:57:03;30.50;99.90
13223;DHT22;6676;45.192;5.722;2022-07-23T13:59:56;30.80;99.90
13223;DHT22;6676;45.192;5.722;2022-07-23T14:02:49;31.00;99.90
13223;DHT22;6676;45.192;5.722;2022-07-23T14:05:42;31.20;99.90
13223;DHT22;6676;45.192;5.722;2022-07-23T14:08:33;31.40;99.90
13223;DHT22;6676;45.192;5.722;2022-07-23T14:11:25;31.30;99.90
13223;DHT22;6676;45.192;5.722;2022-07-23T14:14:19;31.50;99.90
13223;DHT22;6676;45.192;5.722;2022-07-23T14:17:11;31.80;99.90
13223;DHT22;6676;45.192;5.722;2022-07-23T14:20:04;31.70;99.90
13223;DHT22;6676;45.192;5.722;2022-07-23T14:25:38;32.00;99.90
13223;DHT22;6676;45.192;5.722;2022-07-23T14:28:30;32.10;99.90
13223;DHT22;6676;45.192;5.722;2022-07-23T14:35:24;32.20;99.90
13223;DHT22;6676;45.192;5.722;2022-07-23T14:41:14;31.80;99.90
13223;DHT22;6676;45.192;5.722;2022-07-23T14:46:55;31.80;99.90
13223;DHT22;6676;45.192;5.722;2022-07-23T14:52:34;31.80;99.90
13223;DHT22;6676;45.192;5.722;2022-07-23T14:58:11;31.80;99.90
13223;DHT22;6676;45.192;5.722;2022-07-23T15:01:03;31.70;99.90
13223;DHT22;6676;45.192;5.722;2022-07-23T15:03:55;31.90;99.90
13223;DHT22;6676;45.192;5.722;2022-07-23T15:09:31;31.60;99.90
13223;DHT22;6676;45.192;5.722;2022-07-23T15:12:37;31.70;99.90
13223;DHT22;6676;45.192;5.722;2022-07-23T15:15:29;31.50;99.90
13223;DHT22;6676;45.192;5.722;2022-07-23T15:18:20;31.20;99.90
13223;DHT22;6676;45.192;5.722;2022-07-23T15:21:21;31.20;99.90
13223;DHT22;6676;45.192;5.722;2022-07-23T15:26:53;31.50;99.90
13223;DHT22;6676;45.192;5.722;2022-07-23T15:32:30;32.20;99.90
13223;DHT22;6676;45.192;5.722;2022-07-23T15:35:21;32.50;99.90
13223;DHT22;6676;45.192;5.722;2022-07-23T15:38:15;32.80;99.90
13223;DHT22;6676;45.192;5.722;2022-07-23T15:41:08;32.80;99.90
13223;DHT22;6676;45.192;5.722;2022-07-23T15:49:51;32.00;99.90
13223;DHT22;6676;45.192;5.722;2022-07-23T15:52:44;31.80;99.90
13223;DHT22;6676;45.192;5.722;2022-07-23T15:55:54;31.50;99.90
13223;DHT22;6676;45.192;5.722;2022-07-23T15:58:47;31.80;99.90
13223;DHT22;6676;45.192;5.722;2022-07-23T16:01:39;32.60;99.90
13223;DHT22;6676;45.192;5.722;2022-07-23T16:04:31;32.90;99.90
13223;DHT22;6676;45.192;5.722;2022-07-23T16:07:32;32.80;99.90
13223;DHT22;6676;45.192;5.722;2022-07-23T16:10:47;33.10;99.90
13223;DHT22;6676;45.192;5.722;2022-07-23T16:13:39;33.10;99.90
13223;DHT22;6676;45.192;5.722;2022-07-23T16:16:31;33.50;99.20
13223;DHT22;6676;45.192;5.722;2022-07-23T16:19:23;33.70;98.40
13223;DHT22;6676;45.192;5.722;2022-07-23T16:22:15;33.60;98.30
13223;DHT22;6676;45.192;5.722;2022-07-23T16:25:08;33.70;98.10
13223;DHT22;6676;45.192;5.722;2022-07-23T16:28:04;33.70;97.80
13223;DHT22;6676;45.192;5.722;2022-07-23T16:33:46;33.90;97.10
13223;DHT22;6676;45.192;5.722;2022-07-23T16:36:45;33.80;96.90
13223;DHT22;6676;45.192;5.722;2022-07-23T16:39:39;33.60;97.10
13223;DHT22;6676;45.192;5.722;2022-07-23T16:42:31;33.60;97.00
13223;DHT22;6676;45.192;5.722;2022-07-23T16:45:23;33.40;97.10
13223;DHT22;6676;45.192;5.722;2022-07-23T16:54:32;33.30;97.60
13223;DHT22;6676;45.192;5.722;2022-07-23T16:57:31;33.30;98.00
13223;DHT22;6676;45.192;5.722;2022-07-23T17:00:36;33.10;98.10
13223;DHT22;6676;45.192;5.722;2022-07-23T17:03:43;33.10;98.30
13223;DHT22;6676;45.192;5.722;2022-07-23T17:06:47;33.10;98.00
13223;DHT22;6676;45.192;5.722;2022-07-23T17:09:47;32.90;97.80
13223;DHT22;6676;45.192;5.722;2022-07-23T17:12:46;33.00;97.80
13223;DHT22;6676;45.192;5.722;2022-07-23T17:18:31;32.80;97.90
13223;DHT22;6676;45.192;5.722;2022-07-23T17:21:23;32.40;98.10
13223;DHT22;6676;45.192;5.722;2022-07-23T17:24:16;32.30;98.50
13223;DHT22;6676;45.192;5.722;2022-07-23T17:27:10;32.20;98.30
13223;DHT22;6676;45.192;5.722;2022-07-23T17:30:03;32.00;98.40
13223;DHT22;6676;45.192;5.722;2022-07-23T17:32:56;31.80;98.70
13223;DHT22;6676;45.192;5.722;2022-07-23T17:54:39;30.80;99.80
13223;DHT22;6676;45.192;5.722;2022-07-23T17:57:31;30.80;99.80
13223;DHT22;6676;45.192;5.722;2022-07-23T18:00:25;30.80;99.70
13223;DHT22;6676;45.192;5.722;2022-07-23T18:03:17;30.90;99.60
13223;DHT22;6676;45.192;5.722;2022-07-23T18:36:36;29.20;99.90
13223;DHT22;6676;45.192;5.722;2022-07-23T18:42:13;28.70;99.90
13223;DHT22;6676;45.192;5.722;2022-07-23T18:45:07;28.80;99.90
13223;DHT22;6676;45.192;5.722;2022-07-23T18:48:00;28.70;99.90
13223;DHT22;6676;45.192;5.722;2022-07-23T18:50:52;28.50;99.90
13223;DHT22;6676;45.192;5.722;2022-07-23T18:53:47;28.40;99.90
13223;DHT22;6676;45.192;5.722;2022-07-23T18:56:39;28.40;99.90
13223;DHT22;6676;45.192;5.722;2022-07-23T18:59:33;28.30;99.90
13223;DHT22;6676;45.192;5.722;2022-07-23T19:02:29;28.30;99.90
13223;DHT22;6676;45.192;5.722;2022-07-23T19:05:22;28.20;99.90
13223;DHT22;6676;45.192;5.722;2022-07-23T19:08:14;28.20;99.90
13223;DHT22;6676;45.192;5.722;2022-07-23T19:11:08;28.00;99.90
13223;DHT22;6676;45.192;5.722;2022-07-23T19:14:01;28.00;99.90
13223;DHT22;6676;45.192;5.722;2022-07-23T19:16:56;27.90;99.90
13223;DHT22;6676;45.192;5.722;2022-07-23T19:19:48;27.90;99.90
13223;DHT22;6676;45.192;5.722;2022-07-23T19:22:50;27.80;99.90
13223;DHT22;6676;45.192;5.722;2022-07-23T19:25:42;27.80;99.90
13223;DHT22;6676;45.192;5.722;2022-07-23T19:28:36;27.70;99.90
13223;DHT22;6676;45.192;5.722;2022-07-23T19:31:29;27.70;99.90
13223;DHT22;6676;45.192;5.722;2022-07-23T19:47:42;27.70;99.90
13223;DHT22;6676;45.192;5.722;2022-07-23T19:50:37;27.40;99.90
13223;DHT22;6676;45.192;5.722;2022-07-23T19:53:33;27.40;99.90
13223;DHT22;6676;45.192;5.722;2022-07-23T19:56:25;27.30;99.90
13223;DHT22;6676;45.192;5.722;2022-07-23T19:59:18;27.40;99.90
13223;DHT22;6676;45.192;5.722;2022-07-23T20:02:10;27.30;99.90
13223;DHT22;6676;45.192;5.722;2022-07-23T20:05:10;27.30;99.90
13223;DHT22;6676;45.192;5.722;2022-07-23T20:08:04;27.30;99.90
13223;DHT22;6676;45.192;5.722;2022-07-23T20:10:58;27.20;99.90
13223;DHT22;6676;45.192;5.722;2022-07-23T20:13:50;27.20;99.90
13223;DHT22;6676;45.192;5.722;2022-07-23T20:16:44;27.20;99.90
13223;DHT22;6676;45.192;5.722;2022-07-23T20:19:37;27.20;99.90
13223;DHT22;6676;45.192;5.722;2022-07-23T20:22:31;27.20;99.90
13223;DHT22;6676;45.192;5.722;2022-07-23T20:25:26;27.10;99.90
13223;DHT22;6676;45.192;5.722;2022-07-23T20:28:21;27.00;99.90
13223;DHT22;6676;45.192;5.722;2022-07-23T20:31:13;27.00;99.90
13223;DHT22;6676;45.192;5.722;2022-07-23T20:34:10;27.00;99.90
13223;DHT22;6676;45.192;5.722;2022-07-23T20:37:08;27.00;99.90
13223;DHT22;6676;45.192;5.722;2022-07-23T20:40:03;26.90;99.90
13223;DHT22;6676;45.192;5.722;2022-07-23T20:43:04;26.90;99.90
13223;DHT22;6676;45.192;5.722;2022-07-23T20:45:56;26.90;99.90
13223;DHT22;6676;45.192;5.722;2022-07-23T20:48:48;26.90;99.90
13223;DHT22;6676;45.192;5.722;2022-07-23T20:51:42;26.90;99.90
13223;DHT22;6676;45.192;5.722;2022-07-23T20:54:33;26.90;99.90
13223;DHT22;6676;45.192;5.722;2022-07-23T20:57:25;26.90;99.90
13223;DHT22;6676;45.192;5.722;2022-07-23T21:00:18;26.90;99.90
13223;DHT22;6676;45.192;5.722;2022-07-23T21:03:11;26.90;99.90
13223;DHT22;6676;45.192;5.722;2022-07-23T21:08:43;27.00;99.90
13223;DHT22;6676;45.192;5.722;2022-07-23T21:11:34;26.90;99.90
13223;DHT22;6676;45.192;5.722;2022-07-23T21:14:25;26.90;99.90
13223;DHT22;6676;45.192;5.722;2022-07-23T21:17:17;26.80;99.90
13223;DHT22;6676;45.192;5.722;2022-07-23T21:20:10;26.80;99.90